Hauptseite
METAR-TAF:

METAR-TAF

Flughäfen :

Islay Airport

Islay, Schottland

Breite: 55-40-55N, Länge: 006-15-24W, Höhe: 16 m

Beobachtung

Neuester Wetterbericht von vor 33 Minuten, um 01:50 UTC
Wind 1 kt aus unterschiedlichen Richtungen
Temperatur 3°C
Luftfeuchtigkeit 93%
Luftdruck 1033 hPa
Sichtweite 10 km oder mehr

METAR: EGPI 150150Z AUTO VRB01KT 9999 NCD 03/02 Q1033

Zeit: 03:23 (02:23 UTC)

Prognose

Neuester Wetterbericht von vor 12 Stunden und 24 Minuten, um 13:59 UTC
Gültige Prognose vom 14 um 15 UTC bis 14 um 18 UTC
Wind 5 kt aus Südwest
Sichtweite 10 km oder mehr
Leicht bewölkt in der Höhe von 3500 ft

TAF: EGPI 141359Z 1415/1418 23005KT 9999 FEW035

Wetterbeobachtungen und Prognosen von mehr als 4000 Flughäfen (METAR und TAF Bericht).

Die verfügbaren Stationen werden durch gelbe und rote Markierungen auf der Karte dargestellt.

Führen Sie die Maus auf sie, um den Namen der Station zu sehen.

Darauf klicken, um die Beobachtung von Wetterbeobachtungen und Prognosen zu sehen.

Um die Karte zu ändern : klicken Sie auf den grünen Tasten mit einem schwarzen Kreuz Zum Vergrößern, auf den grünen Button mit einem Gedankenstrich zu verkleinern, oder auf die grünen Pfeile für benachbarte Karten.


METAR-TAF: